Terminal Aerodrome Forecast
Issued by NWS Wilmington, OH

Home | Current Version | Previous Version | Text Only | Print | Product List | Glossary On
Versions: 1 2 3 4 5 6 7 8 9 10 11 12 13 14 15 16 17 18 19
186
FTUS41 KILN 072335
TAFCMH
TAF
KCMH 072335Z 0800/0824 25008KT P6SM OVC100
     FM081200 27012G22KT P6SM BKN022
     FM081600 28014G24KT P6SM BKN035=

USA.gov is the U.S. government's official web portal to all federal, state and local government web resources and services.